Time;durP1;ratioP1;P1;durP2;ratioP2;P2;SDS_P1;SDS_P2;PMS_P1;PMS_P2;Temp;Humidity;BMP_temperature;BMP_pressure;BME280_temperature;BME280_humidity;BME280_pressure;Samples;Min_cycle;Max_cycle;Signal;HPM_P1;HPM_P2
2021/05/26 00:01:28;;;;;;;3.33;2.75;;;14.40;65.50;;;;;;5025790;28;20088;-92
2021/05/26 00:03:53;;;;;;;3.60;2.72;;;14.40;65.50;;;;;;4998498;28;20034;-91
2021/05/26 00:06:20;;;;;;;4.35;2.50;;;14.40;65.50;;;;;;5030603;28;20120;-91
2021/05/26 00:08:46;;;;;;;3.15;2.42;;;14.40;65.50;;;;;;4995074;28;20048;-91
2021/05/26 00:11:14;;;;;;;4.68;2.65;;;14.40;65.50;;;;;;5012542;28;20034;-91
2021/05/26 00:13:42;;;;;;;3.33;2.58;;;14.40;65.60;;;;;;4997889;28;20018;-91
2021/05/26 00:16:08;;;;;;;4.00;2.70;;;14.30;65.60;;;;;;5015926;28;20034;-92
2021/05/26 00:18:34;;;;;;;4.22;2.70;;;14.30;65.50;;;;;;4999824;28;20072;-92
2021/05/26 00:21:00;;;;;;;3.40;2.40;;;14.30;65.60;;;;;;5012666;28;20113;-91
2021/05/26 00:23:26;;;;;;;3.53;2.40;;;14.30;65.60;;;;;;5010825;28;20399;-92
2021/05/26 00:25:53;;;;;;;3.25;2.40;;;14.30;65.60;;;;;;4997320;28;20030;-91
2021/05/26 00:28:19;;;;;;;3.63;2.30;;;14.30;65.60;;;;;;5011823;28;20545;-92
2021/05/26 00:30:48;;;;;;;3.47;2.20;;;14.20;65.60;;;;;;5013666;28;20169;-91
2021/05/26 00:33:15;;;;;;;3.72;2.08;;;14.20;65.60;;;;;;4997648;28;20022;-93
2021/05/26 00:35:41;;;;;;;2.20;2.00;;;14.20;65.60;;;;;;5005327;28;20057;-93
2021/05/26 00:38:08;;;;;;;2.50;2.00;;;14.20;65.60;;;;;;4997428;28;20177;-94
2021/05/26 00:40:34;;;;;;;2.40;1.83;;;14.20;65.60;;;;;;4997152;28;20026;-92
2021/05/26 00:43:00;;;;;;;2.33;1.88;;;14.20;65.60;;;;;;5011116;28;20471;-92
2021/05/26 00:45:26;;;;;;;2.90;1.92;;;14.20;65.60;;;;;;4988423;28;20057;-91
2021/05/26 00:47:52;;;;;;;2.15;1.85;;;14.20;65.60;;;;;;5015845;28;20061;-91
2021/05/26 00:50:30;;;;;;;2.00;1.75;;;14.20;65.70;;;;;;4989595;28;20057;-92
2021/05/26 00:53:08;;;;;;;1.58;1.33;;;14.10;65.70;;;;;;4999560;28;20041;-91
2021/05/26 00:55:35;;;;;;;1.80;1.70;;;14.10;65.70;;;;;;4987695;28;20102;-91
2021/05/26 00:58:04;;;;;;;1.50;1.40;;;14.10;65.60;;;;;;4993241;28;20093;-90
2021/05/26 01:00:31;;;;;;;1.83;1.58;;;14.10;65.60;;;;;;5010643;28;20039;-91
2021/05/26 01:03:09;;;;;;;1.88;1.58;;;14.10;65.60;;;;;;4994012;28;20503;-92
2021/05/26 01:05:38;;;;;;;1.73;1.40;;;14.10;65.60;;;;;;5014023;28;20026;-92
2021/05/26 01:08:04;;;;;;;2.30;1.50;;;14.00;65.60;;;;;;4994019;28;20030;-93
2021/05/26 01:10:33;;;;;;;1.55;1.33;;;14.00;65.60;;;;;;4993081;28;20037;-93
2021/05/26 01:13:05;;;;;;;1.85;1.45;;;14.00;65.70;;;;;;5008793;28;20467;-92
2021/05/26 01:15:31;;;;;;;1.50;1.27;;;14.00;65.70;;;;;;5002183;28;20088;-91
2021/05/26 01:18:16;;;;;;;1.58;1.38;;;14.00;65.70;;;;;;4992090;28;20475;-91
2021/05/26 01:20:42;;;;;;;1.40;1.30;;;14.00;65.70;;;;;;4994667;28;20030;-91
2021/05/26 01:23:08;;;;;;;1.40;1.30;;;14.00;65.70;;;;;;4996017;28;20033;-91
2021/05/26 01:25:36;;;;;;;1.35;1.25;;;14.00;65.70;;;;;;4996537;28;20037;-90
2021/05/26 01:28:04;;;;;;;1.38;1.20;;;13.90;66.40;;;;;;5007548;28;20433;-91
2021/05/26 01:30:32;;;;;;;1.60;1.20;;;13.90;65.80;;;;;;4988530;28;20038;-91
2021/05/26 01:32:58;;;;;;;1.00;1.00;;;13.90;65.80;;;;;;4996415;28;20038;-90
2021/05/26 01:35:29;;;;;;;1.58;1.30;;;13.90;65.90;;;;;;4981720;28;20171;-91
2021/05/26 01:37:55;;;;;;;1.13;0.95;;;13.90;65.80;;;;;;4997596;28;20121;-91
2021/05/26 01:40:21;;;;;;;1.70;1.20;;;13.90;65.90;;;;;;4991571;28;20457;-92
2021/05/26 01:42:47;;;;;;;1.23;1.13;;;13.90;65.90;;;;;;5028673;28;20032;-91
2021/05/26 01:45:18;;;;;;;1.40;1.30;;;13.90;65.90;;;;;;4992268;28;20058;-90
2021/05/26 01:47:48;;;;;;;1.30;1.20;;;13.80;65.90;;;;;;5011329;28;20034;-90
2021/05/26 01:50:21;;;;;;;1.13;1.10;;;13.90;66.00;;;;;;5009586;28;20096;-89
2021/05/26 01:52:59;;;;;;;1.00;1.00;;;13.80;65.90;;;;;;4995089;28;20112;-89
2021/05/26 01:55:25;;;;;;;1.17;1.08;;;13.80;66.00;;;;;;5002214;28;20030;-88
2021/05/26 01:57:52;;;;;;;1.10;1.05;;;13.80;66.00;;;;;;5006407;28;20026;-88
2021/05/26 02:00:24;;;;;;;1.33;1.02;;;13.80;66.00;;;;;;5009303;28;20037;-88
2021/05/26 02:02:52;;;;;;;0.98;0.98;;;13.80;66.00;;;;;;4993312;28;20088;-88
2021/05/26 02:05:19;;;;;;;1.48;1.30;;;13.80;66.10;;;;;;5011211;28;20109;-89
2021/05/26 02:07:47;;;;;;;1.17;1.08;;;13.80;66.20;;;;;;5011379;28;20038;-89
2021/05/26 02:10:16;;;;;;;1.20;1.10;;;13.80;66.20;;;;;;4989586;28;20030;-89
2021/05/26 02:12:44;;;;;;;1.05;0.98;;;13.80;66.20;;;;;;5009736;28;20018;-89
2021/05/26 02:15:14;;;;;;;1.23;1.13;;;13.70;66.20;;;;;;4993861;28;20092;-90
2021/05/26 02:17:41;;;;;;;1.75;1.17;;;13.70;66.20;;;;;;4995937;28;20030;-89
2021/05/26 02:20:10;;;;;;;1.13;1.08;;;13.70;66.20;;;;;;5016047;28;20124;-90
2021/05/26 02:22:38;;;;;;;1.33;1.17;;;13.70;66.20;;;;;;5013586;28;20030;-90
2021/05/26 02:25:05;;;;;;;1.58;1.20;;;13.70;66.30;;;;;;5015639;28;20033;-90
2021/05/26 02:27:31;;;;;;;2.25;1.17;;;13.70;66.30;;;;;;5009060;28;20086;-90
2021/05/26 02:29:57;;;;;;;1.08;1.05;;;13.70;66.40;;;;;;5020287;28;20022;-91
2021/05/26 02:32:25;;;;;;;1.00;0.90;;;13.70;66.30;;;;;;5030255;28;20080;-90
2021/05/26 02:34:51;;;;;;;1.08;1.00;;;13.70;66.40;;;;;;5010197;28;20040;-90
2021/05/26 02:37:17;;;;;;;1.33;1.23;;;13.70;66.40;;;;;;5015923;28;20034;-90
2021/05/26 02:39:43;;;;;;;1.00;1.00;;;13.60;66.30;;;;;;4999529;28;20034;-90
2021/05/26 02:42:09;;;;;;;1.30;1.20;;;13.60;66.40;;;;;;5025328;28;20109;-91
2021/05/26 02:44:35;;;;;;;1.08;1.00;;;13.60;66.40;;;;;;4996117;28;20050;-90
2021/05/26 02:47:01;;;;;;;1.45;1.27;;;13.60;66.50;;;;;;5003925;28;20597;-91
2021/05/26 02:49:27;;;;;;;2.25;1.20;;;13.60;66.50;;;;;;5015959;28;20058;-91
2021/05/26 02:51:53;;;;;;;1.33;1.17;;;13.60;66.50;;;;;;4992955;28;20029;-90
2021/05/26 02:54:20;;;;;;;1.20;1.10;;;13.60;66.50;;;;;;5030974;28;20025;-90
2021/05/26 02:56:46;;;;;;;1.40;1.27;;;13.50;66.50;;;;;;4997364;28;20027;-91
2021/05/26 02:59:31;;;;;;;1.23;1.13;;;13.60;66.60;;;;;;5029622;28;20045;-90
2021/05/26 03:02:03;;;;;;;1.20;1.10;;;13.60;66.50;;;;;;4995965;28;20034;-90
2021/05/26 03:04:44;;;;;;;1.48;1.10;;;13.60;66.60;;;;;;5015604;28;20076;-89
2021/05/26 03:07:12;;;;;;;1.40;1.20;;;13.60;66.60;;;;;;5001324;28;20044;-90
2021/05/26 03:09:39;;;;;;;1.30;1.20;;;13.60;66.60;;;;;;4998461;28;20041;-90
2021/05/26 03:12:06;;;;;;;1.30;1.20;;;13.50;66.60;;;;;;4988408;28;20068;-90
2021/05/26 03:14:44;;;;;;;1.55;1.33;;;13.50;66.60;;;;;;4984940;28;20121;-91
2021/05/26 03:17:10;;;;;;;1.55;1.45;;;13.50;66.60;;;;;;5015132;28;20548;-90
2021/05/26 03:19:37;;;;;;;1.52;1.25;;;13.50;66.60;;;;;;5018673;28;20029;-91
2021/05/26 03:22:23;;;;;;;1.77;1.40;;;13.50;66.70;;;;;;5027224;28;20045;-91
2021/05/26 03:25:16;;;;;;;1.42;1.27;;;13.50;66.60;;;;;;4994354;28;20038;-91
2021/05/26 03:27:44;;;;;;;1.75;1.48;;;13.50;66.70;;;;;;5011240;28;20058;-92
2021/05/26 03:30:13;;;;;;;2.05;1.50;;;13.50;66.80;;;;;;4988358;28;20372;-90
2021/05/26 03:32:40;;;;;;;2.35;1.77;;;13.50;66.80;;;;;;5012728;28;20026;-90
2021/05/26 03:35:08;;;;;;;2.78;1.58;;;13.50;66.80;;;;;;4998407;28;20542;-90
2021/05/26 03:37:34;;;;;;;1.40;1.30;;;13.50;66.80;;;;;;5011896;28;20037;-90
2021/05/26 03:40:01;;;;;;;2.65;2.00;;;13.50;66.80;;;;;;5013725;28;20029;-90
2021/05/26 03:42:27;;;;;;;2.08;1.50;;;13.50;66.80;;;;;;5004702;28;20031;-90
2021/05/26 03:44:53;;;;;;;1.80;1.50;;;13.50;66.80;;;;;;4990149;28;20057;-90
2021/05/26 03:47:19;;;;;;;1.75;1.50;;;13.50;66.80;;;;;;5014384;28;20026;-90
2021/05/26 03:49:45;;;;;;;1.45;1.35;;;13.50;66.90;;;;;;5002423;28;20041;-90
2021/05/26 03:52:11;;;;;;;2.05;1.50;;;13.50;66.90;;;;;;5008303;28;20041;-90
2021/05/26 03:54:42;;;;;;;2.28;1.60;;;13.50;66.90;;;;;;4998563;28;20117;-89
2021/05/26 03:57:09;;;;;;;1.70;1.60;;;13.50;66.90;;;;;;5014026;28;20026;-89
2021/05/26 03:59:37;;;;;;;2.38;1.77;;;13.40;66.90;;;;;;5011847;28;20038;-90
2021/05/26 04:02:03;;;;;;;1.92;1.70;;;13.40;66.90;;;;;;5002096;28;20026;-90
2021/05/26 04:04:30;;;;;;;2.40;1.85;;;13.40;66.90;;;;;;5025800;28;20030;-90
2021/05/26 04:07:00;;;;;;;1.90;1.70;;;13.40;67.00;;;;;;5000887;28;20046;-90
2021/05/26 04:09:28;;;;;;;3.25;2.30;;;13.40;66.90;;;;;;4997652;28;20141;-90
2021/05/26 04:11:55;;;;;;;3.50;1.92;;;13.40;66.90;;;;;;5027389;28;20088;-90
2021/05/26 04:14:33;;;;;;;4.07;2.00;;;13.40;67.00;;;;;;5007552;28;20038;-91
2021/05/26 04:17:18;;;;;;;2.22;1.88;;;13.40;67.00;;;;;;5008988;28;20045;-90
2021/05/26 04:20:13;;;;;;;2.03;1.80;;;13.40;67.00;;;;;;4996286;28;20398;-90
2021/05/26 04:22:40;;;;;;;3.03;2.15;;;13.40;67.00;;;;;;5006260;28;20065;-88
2021/05/26 04:25:08;;;;;;;2.85;2.00;;;13.40;67.00;;;;;;5001979;28;20033;-85
2021/05/26 04:27:34;;;;;;;3.28;2.20;;;13.40;67.10;;;;;;4999694;28;20066;-86
2021/05/26 04:30:01;;;;;;;2.70;2.15;;;13.40;67.10;;;;;;5011612;28;20116;-85
2021/05/26 04:32:32;;;;;;;3.10;2.28;;;13.40;67.10;;;;;;5005249;28;20026;-90
2021/05/26 04:34:58;;;;;;;3.47;2.15;;;13.40;67.10;;;;;;5010077;28;20034;-85
2021/05/26 04:37:24;;;;;;;2.83;2.40;;;13.40;67.10;;;;;;5008849;28;20379;-85
2021/05/26 04:39:49;;;;;;;3.47;2.50;;;13.40;67.10;;;;;;4995174;28;20038;-86
2021/05/26 04:42:15;;;;;;;3.97;2.40;;;13.40;67.80;;;;;;5008013;28;20383;-84
2021/05/26 04:44:41;;;;;;;3.58;2.50;;;13.40;67.10;;;;;;4993015;28;20054;-86
2021/05/26 04:47:07;;;;;;;3.58;2.70;;;13.40;67.10;;;;;;5007804;28;20383;-87
2021/05/26 04:49:33;;;;;;;4.03;2.30;;;13.40;67.20;;;;;;5005138;28;20146;-88
2021/05/26 04:51:59;;;;;;;4.18;2.53;;;13.40;67.20;;;;;;4993091;28;20502;-82
2021/05/26 04:54:25;;;;;;;3.90;2.30;;;13.40;67.20;;;;;;5014586;28;20087;-87
2021/05/26 04:56:50;;;;;;;3.85;2.50;;;13.40;67.20;;;;;;4978297;28;20037;-86
2021/05/26 04:59:16;;;;;;;3.72;2.50;;;13.40;67.50;;;;;;5024529;28;20383;-83
2021/05/26 05:01:42;;;;;;;2.72;2.30;;;13.40;67.20;;;;;;5002474;28;20040;-86
2021/05/26 05:04:08;;;;;;;3.85;2.40;;;13.40;67.20;;;;;;4996710;28;20034;-86
2021/05/26 05:06:33;;;;;;;3.08;2.05;;;13.40;67.20;;;;;;5028462;28;20034;-84
2021/05/26 05:08:59;;;;;;;3.13;2.30;;;13.40;67.30;;;;;;5012601;28;20033;-85
2021/05/26 05:11:25;;;;;;;2.90;2.00;;;13.40;67.30;;;;;;5028928;28;20037;-85
2021/05/26 05:13:51;;;;;;;3.78;2.10;;;13.40;67.30;;;;;;4994854;28;20018;-85
2021/05/26 05:16:17;;;;;;;3.15;2.20;;;13.40;67.40;;;;;;4998855;28;20385;-87
2021/05/26 05:18:43;;;;;;;3.35;2.50;;;13.40;67.30;;;;;;4997470;28;20062;-85
2021/05/26 05:21:09;;;;;;;3.90;2.28;;;13.40;67.30;;;;;;4995863;28;20061;-86
2021/05/26 05:23:35;;;;;;;3.70;1.90;;;13.40;67.30;;;;;;5024615;28;20526;-85
2021/05/26 05:26:02;;;;;;;3.47;2.17;;;13.40;67.30;;;;;;5011101;28;20026;-86
2021/05/26 05:28:27;;;;;;;4.72;2.40;;;13.40;67.30;;;;;;4996196;28;20033;-85
2021/05/26 05:30:53;;;;;;;2.95;2.10;;;13.40;67.30;;;;;;4979964;28;20037;-84
2021/05/26 05:33:19;;;;;;;3.28;2.10;;;13.40;67.30;;;;;;5028652;28;20025;-84
2021/05/26 05:35:45;;;;;;;3.45;2.15;;;13.40;67.30;;;;;;5011667;28;20133;-84
2021/05/26 05:38:10;;;;;;;3.10;2.30;;;13.40;67.30;;;;;;5020020;28;20080;-85
2021/05/26 05:40:36;;;;;;;3.42;1.90;;;13.50;67.30;;;;;;4996316;28;20120;-85
2021/05/26 05:43:02;;;;;;;3.20;2.13;;;13.50;67.40;;;;;;5012127;28;20037;-85
2021/05/26 05:45:28;;;;;;;2.95;1.98;;;13.40;67.30;;;;;;5028683;28;20115;-85
2021/05/26 05:47:53;;;;;;;3.13;1.90;;;13.50;67.30;;;;;;4985420;28;20061;-85
2021/05/26 05:50:19;;;;;;;4.07;2.30;;;13.40;67.30;;;;;;5006181;28;20376;-85
2021/05/26 05:52:49;;;;;;;3.58;2.15;;;13.50;67.30;;;;;;4995668;28;20022;-85
2021/05/26 05:55:16;;;;;;;2.78;2.00;;;13.40;67.30;;;;;;4985965;28;20431;-84
2021/05/26 05:57:42;;;;;;;2.65;2.17;;;13.50;67.30;;;;;;5013520;28;20026;-84
2021/05/26 06:00:10;;;;;;;3.05;1.90;;;13.50;67.30;;;;;;5012084;28;20037;-85
2021/05/26 06:02:45;;;;;;;2.85;2.10;;;13.50;67.30;;;;;;5013847;28;20033;-83
2021/05/26 06:05:15;;;;;;;2.78;1.95;;;13.50;67.30;;;;;;4996280;28;20088;-85
2021/05/26 06:07:41;;;;;;;2.78;1.90;;;13.50;68.00;;;;;;5011143;28;20033;-84
2021/05/26 06:10:09;;;;;;;3.88;2.20;;;13.50;67.30;;;;;;5007250;28;20088;-84
2021/05/26 06:12:35;;;;;;;3.38;2.10;;;13.50;67.40;;;;;;5000514;28;20030;-85
2021/05/26 06:15:02;;;;;;;2.53;1.90;;;13.50;67.30;;;;;;5028771;28;20099;-86
2021/05/26 06:17:28;;;;;;;2.30;1.90;;;13.50;67.30;;;;;;5012136;28;20033;-85
2021/05/26 06:19:53;;;;;;;2.45;1.90;;;13.50;67.30;;;;;;5012466;28;20038;-85
2021/05/26 06:22:19;;;;;;;3.05;2.03;;;13.50;67.30;;;;;;5012105;28;20022;-85
2021/05/26 06:24:45;;;;;;;3.22;2.00;;;13.50;67.30;;;;;;5004067;28;20057;-85
2021/05/26 06:27:11;;;;;;;3.42;2.40;;;13.50;67.30;;;;;;4995877;28;20033;-85
2021/05/26 06:29:37;;;;;;;3.35;2.10;;;13.50;67.30;;;;;;5008428;28;20042;-83
2021/05/26 06:32:02;;;;;;;3.03;2.25;;;13.60;67.40;;;;;;4991760;28;20379;-88
2021/05/26 06:34:28;;;;;;;3.55;2.10;;;13.50;67.30;;;;;;5004373;28;20483;-87
2021/05/26 06:36:54;;;;;;;3.70;2.13;;;13.60;67.40;;;;;;5002090;28;20033;-88
2021/05/26 06:39:20;;;;;;;3.50;2.28;;;13.50;67.30;;;;;;5012187;28;20441;-87
2021/05/26 06:41:46;;;;;;;3.63;2.50;;;13.60;67.40;;;;;;4989358;28;20030;-87
2021/05/26 06:44:12;;;;;;;3.17;2.30;;;13.50;67.30;;;;;;4988937;28;20478;-87
2021/05/26 06:46:39;;;;;;;3.58;2.42;;;13.60;67.40;;;;;;5009180;28;20034;-86
2021/05/26 06:49:05;;;;;;;2.50;2.17;;;13.60;67.40;;;;;;5009894;28;20471;-86
2021/05/26 06:51:32;;;;;;;3.17;2.22;;;13.60;67.40;;;;;;4992843;28;20029;-87
2021/05/26 06:53:58;;;;;;;3.85;2.60;;;13.60;67.40;;;;;;4987703;28;20033;-88
2021/05/26 06:56:24;;;;;;;3.30;2.13;;;13.60;67.40;;;;;;5023435;28;20007;-86
2021/05/26 06:58:50;;;;;;;3.35;2.38;;;13.60;67.40;;;;;;4986941;28;20030;-90
2021/05/26 07:01:16;;;;;;;2.88;2.20;;;13.60;67.40;;;;;;4982390;28;20010;-86
2021/05/26 07:03:42;;;;;;;3.45;2.40;;;13.60;67.40;;;;;;4992794;28;20480;-86
2021/05/26 07:06:08;;;;;;;2.50;2.20;;;13.60;67.40;;;;;;4997203;28;20109;-87
2021/05/26 07:08:34;;;;;;;2.85;2.20;;;13.60;67.40;;;;;;5019838;28;20525;-89
2021/05/26 07:11:00;;;;;;;2.72;2.08;;;13.60;67.40;;;;;;5015317;28;20022;-87
2021/05/26 07:13:26;;;;;;;3.80;2.40;;;13.70;67.50;;;;;;4998998;28;20025;-85
2021/05/26 07:15:52;;;;;;;4.00;2.60;;;13.70;67.50;;;;;;5016605;28;20054;-89
2021/05/26 07:18:17;;;;;;;3.50;2.28;;;13.70;67.40;;;;;;4995417;28;20026;-86
2021/05/26 07:20:45;;;;;;;3.05;2.40;;;13.70;67.40;;;;;;4997690;28;20034;-86
2021/05/26 07:23:12;;;;;;;3.17;2.50;;;13.70;67.50;;;;;;4989584;28;20449;-86
2021/05/26 07:25:38;;;;;;;4.15;2.58;;;13.80;67.50;;;;;;4998788;28;20033;-85
2021/05/26 07:28:05;;;;;;;4.07;2.38;;;13.70;67.40;;;;;;4998928;28;20088;-85
2021/05/26 07:30:31;;;;;;;4.30;2.70;;;13.80;67.50;;;;;;5031523;28;20024;-87
2021/05/26 07:32:56;;;;;;;4.47;2.50;;;13.80;67.50;;;;;;5016717;28;20459;-86
2021/05/26 07:35:22;;;;;;;3.78;2.60;;;13.80;67.50;;;;;;4998935;28;20041;-86
2021/05/26 07:37:48;;;;;;;3.63;2.70;;;13.80;67.50;;;;;;5014854;28;20030;-87
2021/05/26 07:40:15;;;;;;;3.63;2.30;;;13.80;67.50;;;;;;5014154;28;20029;-87
2021/05/26 07:42:41;;;;;;;3.45;2.42;;;13.90;67.50;;;;;;5010453;28;20087;-87
2021/05/26 07:45:08;;;;;;;4.03;2.75;;;13.90;67.50;;;;;;4978654;28;20073;-88
2021/05/26 07:47:35;;;;;;;4.47;2.70;;;13.90;67.50;;;;;;5007263;28;20030;-85
2021/05/26 07:50:01;;;;;;;2.85;2.20;;;13.90;67.50;;;;;;5009912;28;20106;-85
2021/05/26 07:52:28;;;;;;;4.85;2.75;;;13.90;67.50;;;;;;5004110;28;20244;-86
2021/05/26 07:54:54;;;;;;;4.00;2.50;;;14.00;67.50;;;;;;4997038;28;20029;-88
2021/05/26 07:57:20;;;;;;;3.88;2.88;;;14.00;67.50;;;;;;5029987;28;20375;-87
2021/05/26 07:59:46;;;;;;;4.88;2.70;;;14.00;67.50;;;;;;5014209;28;20038;-86
2021/05/26 08:02:13;;;;;;;3.47;2.63;;;14.00;67.50;;;;;;5006584;28;20117;-89
2021/05/26 08:04:39;;;;;;;3.28;2.63;;;14.00;67.50;;;;;;5026014;28;20072;-87
2021/05/26 08:07:08;;;;;;;4.50;2.63;;;14.10;67.50;;;;;;4981880;28;20030;-86
2021/05/26 08:09:33;;;;;;;3.78;2.70;;;14.10;67.50;;;;;;5023055;28;20084;-86
2021/05/26 08:11:59;;;;;;;3.67;2.58;;;14.10;67.50;;;;;;5030972;28;20038;-86
2021/05/26 08:14:25;;;;;;;3.92;2.67;;;14.20;67.50;;;;;;5027462;28;20162;-88
2021/05/26 08:16:51;;;;;;;3.85;2.83;;;14.20;67.50;;;;;;4995313;28;20109;-87
2021/05/26 08:19:17;;;;;;;3.88;2.88;;;14.20;67.40;;;;;;5008646;28;20058;-86
2021/05/26 08:21:43;;;;;;;4.03;3.00;;;14.30;67.50;;;;;;5005138;28;20038;-87
2021/05/26 08:24:10;;;;;;;4.30;2.90;;;14.30;67.50;;;;;;5027322;28;20032;-86
2021/05/26 08:26:36;;;;;;;4.10;3.00;;;14.30;67.40;;;;;;5014012;28;20034;-87
2021/05/26 08:29:06;;;;;;;3.83;3.05;;;14.40;67.40;;;;;;5013721;28;20083;-86
2021/05/26 08:31:32;;;;;;;3.63;2.90;;;14.40;67.40;;;;;;5026610;28;20402;-85
2021/05/26 08:33:59;;;;;;;4.20;2.85;;;14.40;67.30;;;;;;5006301;28;20050;-86
2021/05/26 08:36:28;;;;;;;3.85;2.90;;;14.50;67.40;;;;;;5030479;28;20046;-87
2021/05/26 08:38:53;;;;;;;4.40;3.05;;;14.50;67.40;;;;;;5014806;28;20030;-86
2021/05/26 08:41:21;;;;;;;4.75;3.00;;;14.60;67.30;;;;;;5000999;28;20041;-85
2021/05/26 08:43:48;;;;;;;3.78;2.88;;;14.60;67.30;;;;;;5020414;28;20113;-87
2021/05/26 08:46:14;;;;;;;4.47;3.35;;;14.70;67.30;;;;;;5014278;28;20050;-84
2021/05/26 08:48:42;;;;;;;3.88;2.90;;;14.70;67.20;;;;;;4996629;28;20037;-86
2021/05/26 08:51:10;;;;;;;4.88;3.35;;;14.70;67.20;;;;;;5030348;28;20057;-86
2021/05/26 08:53:36;;;;;;;3.53;2.78;;;14.80;67.10;;;;;;5030055;28;20022;-86
2021/05/26 08:56:03;;;;;;;4.05;3.03;;;14.80;67.70;;;;;;5013588;28;20100;-85
2021/05/26 08:58:28;;;;;;;3.83;2.97;;;14.80;67.00;;;;;;5013364;28;20033;-86
2021/05/26 09:00:54;;;;;;;3.80;3.08;;;14.90;67.00;;;;;;5010140;28;20471;-86
2021/05/26 09:03:20;;;;;;;3.80;2.72;;;14.90;67.00;;;;;;5012468;28;20042;-86
2021/05/26 09:05:53;;;;;;;4.57;3.40;;;15.00;67.00;;;;;;5014455;28;20061;-85
2021/05/26 09:08:20;;;;;;;4.55;3.20;;;15.00;67.00;;;;;;5029332;28;20034;-85
2021/05/26 09:10:50;;;;;;;4.00;2.83;;;15.10;66.90;;;;;;5025715;28;20052;-85
2021/05/26 09:13:35;;;;;;;4.18;3.13;;;15.10;66.90;;;;;;5004483;28;20038;-86
2021/05/26 09:16:03;;;;;;;4.10;3.17;;;15.20;66.90;;;;;;5011529;28;20252;-86
2021/05/26 09:18:29;;;;;;;4.20;2.85;;;15.20;66.70;;;;;;5020845;28;20038;-88
2021/05/26 09:20:56;;;;;;;4.00;2.92;;;15.30;66.70;;;;;;5012706;28;20037;-87
2021/05/26 09:23:30;;;;;;;4.63;3.17;;;15.30;66.60;;;;;;5029249;28;20075;-85
2021/05/26 09:25:58;;;;;;;5.05;3.42;;;15.30;66.60;;;;;;5028299;28;20048;-85
2021/05/26 09:28:33;;;;;;;3.65;2.88;;;15.40;66.50;;;;;;5028185;28;20041;-85
2021/05/26 09:31:07;;;;;;;4.18;3.15;;;15.50;66.50;;;;;;5016094;28;20122;-84
2021/05/26 09:33:36;;;;;;;3.60;2.97;;;15.60;66.50;;;;;;5013235;28;20041;-85
2021/05/26 09:36:10;;;;;;;3.30;2.97;;;15.60;66.30;;;;;;5012690;28;20096;-85
2021/05/26 09:38:40;;;;;;;4.55;3.13;;;15.70;66.30;;;;;;5014169;28;20493;-84
2021/05/26 09:41:11;;;;;;;4.15;3.10;;;15.70;66.20;;;;;;5013135;28;20045;-84
2021/05/26 09:43:42;;;;;;;4.55;3.08;;;15.80;66.20;;;;;;5021103;28;20041;-84
2021/05/26 09:46:22;;;;;;;4.28;3.28;;;15.90;66.10;;;;;;5009191;28;20109;-85
2021/05/26 09:49:09;;;;;;;3.90;3.13;;;15.90;66.00;;;;;;5019458;28;20040;-84
2021/05/26 09:51:39;;;;;;;3.75;2.88;;;16.00;66.10;;;;;;5007397;28;20085;-85
2021/05/26 09:54:12;;;;;;;4.18;2.95;;;16.10;65.90;;;;;;4992342;28;20031;-84
2021/05/26 09:56:39;;;;;;;3.92;3.08;;;16.10;65.90;;;;;;4997179;28;20057;-85
2021/05/26 09:59:06;;;;;;;3.30;2.80;;;16.20;66.00;;;;;;5024831;28;20495;-84
2021/05/26 10:01:33;;;;;;;4.82;3.20;;;16.30;65.80;;;;;;5007844;28;20103;-83
2021/05/26 10:03:59;;;;;;;3.85;3.08;;;16.40;65.80;;;;;;5028724;28;20029;-83
2021/05/26 10:06:28;;;;;;;3.42;2.83;;;16.40;65.60;;;;;;5012089;28;20025;-84
2021/05/26 10:09:13;;;;;;;3.97;2.97;;;16.50;65.50;;;;;;5012135;28;20453;-83
2021/05/26 10:11:56;;;;;;;4.30;3.00;;;16.60;65.40;;;;;;5011974;28;20037;-84
2021/05/26 10:14:23;;;;;;;3.78;2.88;;;16.60;65.30;;;;;;5001288;28;20030;-84
2021/05/26 10:16:55;;;;;;;3.20;2.78;;;16.70;65.30;;;;;;5002941;28;20471;-84
2021/05/26 10:19:23;;;;;;;3.42;2.45;;;16.70;65.20;;;;;;5011581;28;20108;-85
2021/05/26 10:21:49;;;;;;;4.07;2.88;;;16.80;65.10;;;;;;5009605;28;20114;-84
2021/05/26 10:24:19;;;;;;;3.85;2.92;;;16.90;65.10;;;;;;4999851;28;20040;-85
2021/05/26 10:26:54;;;;;;;3.33;2.88;;;16.90;65.00;;;;;;5019926;28;20117;-85
2021/05/26 10:29:29;;;;;;;3.53;2.78;;;17.00;65.00;;;;;;4995119;28;20033;-92
2021/05/26 10:32:24;;;;;;;4.13;2.80;;;17.10;65.00;;;;;;5017377;28;20030;-87
2021/05/26 10:34:51;;;;;;;3.97;2.70;;;17.10;64.90;;;;;;4996168;28;20026;-90
2021/05/26 10:37:35;;;;;;;3.00;2.60;;;17.20;64.70;;;;;;5012927;28;20104;-89
2021/05/26 10:40:21;;;;;;;3.42;2.63;;;17.30;64.80;;;;;;5014034;28;20183;-87
2021/05/26 10:42:47;;;;;;;3.17;2.33;;;17.30;64.50;;;;;;5015670;28;20463;-88
2021/05/26 10:45:13;;;;;;;3.42;2.63;;;17.40;64.40;;;;;;5031679;28;20054;-87
2021/05/26 10:47:43;;;;;;;3.05;2.50;;;17.40;64.30;;;;;;5030466;28;20072;-86
2021/05/26 10:50:15;;;;;;;2.53;2.25;;;17.50;64.30;;;;;;5008490;28;20038;-86
2021/05/26 10:52:58;;;;;;;2.95;2.17;;;17.50;64.20;;;;;;4999593;28;20033;-84
2021/05/26 10:55:37;;;;;;;2.33;2.10;;;17.60;64.30;;;;;;4996265;28;20139;-85
2021/05/26 10:58:18;;;;;;;2.42;2.08;;;17.50;64.10;;;;;;4999124;28;20038;-83
2021/05/26 11:00:56;;;;;;;3.13;2.03;;;17.60;64.20;;;;;;5015729;28;20466;-85
2021/05/26 11:03:28;;;;;;;2.50;2.10;;;17.60;64.10;;;;;;5009779;28;20026;-85
2021/05/26 11:06:01;;;;;;;1.80;1.60;;;17.60;64.10;;;;;;5007911;28;20029;-84
2021/05/26 11:08:27;;;;;;;2.60;1.67;;;17.60;64.10;;;;;;5015889;28;20034;-84
2021/05/26 11:10:53;;;;;;;2.40;1.80;;;17.60;64.10;;;;;;4998649;28;20033;-83
2021/05/26 11:13:19;;;;;;;2.42;1.63;;;17.60;64.10;;;;;;5020161;28;20034;-81
2021/05/26 11:15:47;;;;;;;2.13;1.70;;;17.60;64.70;;;;;;5011247;28;20168;-82
2021/05/26 11:18:41;;;;;;;1.35;1.25;;;17.60;64.10;;;;;;5030096;28;20037;-84
2021/05/26 11:21:14;;;;;;;1.40;1.27;;;17.60;64.10;;;;;;5015029;28;20121;-85
2021/05/26 11:23:40;;;;;;;1.40;1.30;;;17.60;64.20;;;;;;5001750;28;20478;-85
2021/05/26 11:26:06;;;;;;;1.60;1.50;;;17.50;64.10;;;;;;5015799;28;20022;-86
2021/05/26 11:28:35;;;;;;;1.90;1.40;;;17.50;64.10;;;;;;4983218;28;20038;-85
2021/05/26 11:31:11;;;;;;;1.52;1.30;;;17.50;64.10;;;;;;5012645;28;20038;-84
2021/05/26 11:33:39;;;;;;;1.55;1.20;;;17.50;64.20;;;;;;4992692;28;20431;-83
2021/05/26 11:36:06;;;;;;;1.98;1.30;;;17.50;64.10;;;;;;4997832;28;20037;-84
2021/05/26 11:38:33;;;;;;;1.42;1.30;;;17.60;64.20;;;;;;5010976;28;20042;-82
2021/05/26 11:41:01;;;;;;;2.00;1.42;;;17.60;64.20;;;;;;5001798;28;20026;-84
2021/05/26 11:43:31;;;;;;;2.13;1.23;;;17.50;64.20;;;;;;5013370;28;20076;-86
2021/05/26 11:46:06;;;;;;;1.58;1.30;;;17.50;64.20;;;;;;5007815;28;20062;-82
2021/05/26 11:48:32;;;;;;;1.95;1.40;;;17.50;64.20;;;;;;4985303;28;20034;-83
2021/05/26 11:50:58;;;;;;;1.40;1.13;;;17.50;64.10;;;;;;5013241;28;20391;-84
2021/05/26 11:53:27;;;;;;;2.45;1.50;;;17.50;64.20;;;;;;5004943;28;20034;-84
2021/05/26 11:55:59;;;;;;;1.75;1.10;;;17.60;64.20;;;;;;4982289;28;20125;-84
2021/05/26 11:58:38;;;;;;;1.40;1.17;;;17.60;64.20;;;;;;4991756;28;20034;-83
2021/05/26 12:01:09;;;;;;;1.38;1.20;;;17.50;64.30;;;;;;4991683;28;20030;-82
2021/05/26 12:03:36;;;;;;;1.52;1.20;;;17.60;64.30;;;;;;4995795;28;20125;-81
2021/05/26 12:06:02;;;;;;;1.98;1.40;;;17.50;64.20;;;;;;4990728;28;20438;-82
2021/05/26 12:08:39;;;;;;;1.35;1.20;;;17.60;64.30;;;;;;5012927;28;20026;-81
2021/05/26 12:11:07;;;;;;;1.38;1.10;;;17.60;64.30;;;;;;5013537;28;20476;-82
2021/05/26 12:13:35;;;;;;;2.42;1.30;;;17.60;64.30;;;;;;5010028;28;20026;-80
2021/05/26 12:16:06;;;;;;;1.10;1.00;;;17.60;64.30;;;;;;4996795;28;20022;-82
2021/05/26 12:18:34;;;;;;;2.58;1.25;;;17.60;64.30;;;;;;5012430;28;20041;-82
2021/05/26 12:21:00;;;;;;;1.30;1.15;;;17.50;64.30;;;;;;4993047;28;20022;-82
2021/05/26 12:23:45;;;;;;;2.13;1.40;;;17.50;64.30;;;;;;5009248;28;20407;-81
2021/05/26 12:26:37;;;;;;;2.58;1.48;;;17.60;64.50;;;;;;5015826;28;20466;-82
2021/05/26 12:29:11;;;;;;;1.27;1.17;;;17.50;64.50;;;;;;4995515;28;20041;-82
2021/05/26 12:31:38;;;;;;;1.38;1.27;;;17.50;64.30;;;;;;5000750;28;20041;-82
2021/05/26 12:34:19;;;;;;;3.60;1.63;;;17.50;64.40;;;;;;5027743;28;20026;-82
2021/05/26 12:36:52;;;;;;;1.88;1.40;;;17.50;64.60;;;;;;5010326;28;20026;-81
2021/05/26 12:39:19;;;;;;;1.42;1.20;;;17.50;64.50;;;;;;4995406;28;20030;-82
2021/05/26 12:41:48;;;;;;;1.92;1.50;;;17.50;64.50;;;;;;5007337;28;20030;-82
2021/05/26 12:44:15;;;;;;;1.50;1.33;;;17.50;64.60;;;;;;5006269;28;20065;-83
2021/05/26 12:46:49;;;;;;;1.77;1.30;;;17.50;64.60;;;;;;4995397;28;20054;-82
2021/05/26 12:52:01;;;;;;;1.55;1.30;;;17.60;64.70;;;;;;5011030;28;20049;-84
2021/05/26 12:54:27;;;;;;;1.50;1.40;;;17.50;64.50;;;;;;5011263;28;20048;-84
2021/05/26 12:57:12;;;;;;;1.65;1.38;;;17.50;64.50;;;;;;4995820;28;20037;-84
2021/05/26 12:59:39;;;;;;;;;;;17.60;64.70;;;;;;5013178;28;20041;-83